createdAt,value
2022-10-21T00:09:46.902Z,99205.68
2022-10-21T00:20:15.409Z,99203.83
2022-10-21T00:30:46.344Z,99215.80
2022-10-21T00:41:14.078Z,99212.34
2022-10-21T00:51:41.927Z,99204.59
2022-10-21T01:02:09.502Z,99189.96
2022-10-21T01:12:45.560Z,99171.16
2022-10-21T01:23:55.738Z,99155.50
2022-10-21T01:34:29.972Z,99143.15
2022-10-21T01:45:03.905Z,99143.69
2022-10-21T01:55:33.540Z,99145.48
2022-10-21T02:06:01.098Z,99139.97
2022-10-21T02:16:33.033Z,99127.08
2022-10-21T02:27:00.517Z,99120.09
2022-10-21T02:37:34.366Z,99115.71
2022-10-21T02:48:01.829Z,99104.67
2022-10-21T02:58:29.206Z,99100.53
2022-10-21T03:08:56.603Z,99093.45
2022-10-21T03:19:23.830Z,99078.23
2022-10-21T03:29:51.104Z,99076.30
2022-10-21T03:40:18.674Z,99064.55
2022-10-21T03:50:45.944Z,99055.01
2022-10-21T04:01:15.170Z,99048.36
2022-10-21T04:11:42.552Z,99043.10
2022-10-21T04:22:09.971Z,99048.44
2022-10-21T04:32:37.735Z,99050.26
2022-10-21T04:43:05.941Z,99040.08
2022-10-21T04:53:33.590Z,99035.47
2022-10-21T05:04:00.815Z,99031.55
2022-10-21T05:14:28.137Z,99029.02
2022-10-21T05:24:55.466Z,99027.42
2022-10-21T05:35:22.754Z,99021.55
2022-10-21T05:45:50.162Z,99040.89
2022-10-21T05:56:17.441Z,99037.35
2022-10-21T06:06:44.769Z,99036.91
2022-10-21T06:17:12.230Z,99044.15
2022-10-21T06:27:39.863Z,99044.89
2022-10-21T06:38:07.441Z,99053.86
2022-10-21T06:48:35.410Z,99052.09
2022-10-21T06:59:02.661Z,99035.97
2022-10-21T07:09:30.808Z,99013.60
2022-10-21T07:19:58.165Z,99000.52
2022-10-21T07:30:25.511Z,98987.53
2022-10-21T07:40:52.889Z,98976.10
2022-10-21T07:51:25.736Z,98963.20
2022-10-21T08:01:56.433Z,98951.16
2022-10-21T08:12:23.776Z,98928.71
2022-10-21T08:22:51.098Z,98907.64
2022-10-21T08:33:18.581Z,98891.12
2022-10-21T08:43:46.570Z,98871.25
2022-10-21T08:54:20.285Z,98862.59
2022-10-21T09:04:54.367Z,98844.13
2022-10-21T09:15:28.541Z,98834.52
2022-10-21T09:26:01.738Z,98830.63
2022-10-21T09:36:33.473Z,98813.02
2022-10-21T09:47:00.785Z,98791.88
2022-10-21T09:57:43.612Z,98788.20
2022-10-21T10:08:34.816Z,98777.77
2022-10-21T10:19:18.201Z,98770.92
2022-10-21T10:29:53.652Z,98782.34
2022-10-21T10:40:25.721Z,98768.22
2022-10-21T10:50:53.633Z,98749.58
2022-10-21T11:01:36.586Z,98739.92
2022-10-21T11:12:07.698Z,98722.56
2022-10-21T11:22:44.885Z,98708.65
2022-10-21T11:33:25.671Z,98687.42
2022-10-21T11:44:03.597Z,98673.84
2022-10-21T11:54:59.689Z,98647.11
2022-10-21T12:05:36.978Z,98618.56
2022-10-21T12:16:10.005Z,98619.38
2022-10-21T12:26:41.780Z,98587.39
2022-10-21T12:37:44.353Z,98588.73
2022-10-21T12:48:33.081Z,98585.27
2022-10-21T12:59:04.591Z,98581.23
2022-10-21T13:09:43.663Z,98564.89
2022-10-21T13:20:47.796Z,98562.35
2022-10-21T13:31:23.268Z,98565.23
2022-10-21T13:41:59.805Z,98576.88
2022-10-21T13:52:31.461Z,98574.23
2022-10-21T14:03:04.950Z,98572.51
2022-10-21T14:13:36.978Z,98583.92
2022-10-21T14:24:05.143Z,98583.48
2022-10-21T14:34:34.014Z,98595.25
2022-10-21T14:45:05.938Z,98590.65
2022-10-21T14:55:33.597Z,98602.47
2022-10-21T15:06:13.034Z,98608.08
2022-10-21T15:16:46.174Z,98614.27
2022-10-21T15:27:19.696Z,98615.41
2022-10-21T15:37:50.582Z,98622.59
2022-10-21T15:48:18.364Z,98636.93
2022-10-21T15:58:45.815Z,98641.13
2022-10-21T16:09:19.701Z,98649.31
2022-10-21T16:19:48.318Z,98638.02
2022-10-21T16:30:21.781Z,98648.71
2022-10-21T16:40:49.001Z,98656.65
2022-10-21T16:51:16.473Z,98671.30
2022-10-21T17:01:44.223Z,98669.14
2022-10-21T17:12:13.180Z,98676.55
2022-10-21T17:22:40.662Z,98673.48
2022-10-21T17:33:10.687Z,98671.38
2022-10-21T17:43:41.621Z,98664.47
2022-10-21T17:54:10.976Z,98658.96
2022-10-21T18:04:38.350Z,98640.80
2022-10-21T18:15:06.867Z,98625.39
2022-10-21T18:25:35.665Z,98615.19
2022-10-21T18:36:11.783Z,98595.38
2022-10-21T18:46:40.795Z,98580.42
2022-10-21T18:57:10.173Z,98577.73
2022-10-21T19:07:38.005Z,98572.00
2022-10-21T19:18:05.743Z,98567.14
2022-10-21T19:28:34.060Z,98560.48
2022-10-21T19:38:59.769Z,98555.23
2022-10-21T19:49:27.162Z,98547.77
2022-10-21T19:59:54.488Z,98564.72
2022-10-21T20:10:23.743Z,98580.52
2022-10-21T20:20:51.456Z,98567.39
2022-10-21T20:31:19.781Z,98564.65
2022-10-21T20:41:45.565Z,98576.67
2022-10-21T20:52:12.933Z,98600.80
2022-10-21T21:02:40.676Z,98586.75
2022-10-21T21:13:08.004Z,98576.31
2022-10-21T21:23:35.831Z,98563.29
2022-10-21T21:34:03.142Z,98548.38
2022-10-21T21:44:30.753Z,98539.86
2022-10-21T21:54:58.566Z,98554.52
2022-10-21T22:05:27.153Z,98559.64
2022-10-21T22:15:54.429Z,98554.81
2022-10-21T22:26:26.581Z,98548.01
2022-10-21T22:36:54.078Z,98545.77
2022-10-21T22:47:23.446Z,98517.98
2022-10-21T22:57:51.937Z,98517.05
2022-10-21T23:08:17.809Z,98512.27
2022-10-21T23:18:45.118Z,98517.00
2022-10-21T23:29:12.750Z,98529.15
2022-10-21T23:39:40.279Z,98529.97
2022-10-21T23:50:10.166Z,98523.80
